sensor_id;sensor_type;location;lat;lon;timestamp;temperature;humidity
27801;DHT22;15181;49.112;11.930;2022-10-14T00:01:02;11.90;99.90
27801;DHT22;15181;49.112;11.930;2022-10-14T00:03:29;11.90;99.90
27801;DHT22;15181;49.112;11.930;2022-10-14T00:05:56;11.90;99.90
27801;DHT22;15181;49.112;11.930;2022-10-14T00:08:23;11.90;99.90
27801;DHT22;15181;49.112;11.930;2022-10-14T00:10:51;11.90;99.90
27801;DHT22;15181;49.112;11.930;2022-10-14T00:13:18;11.80;99.90
27801;DHT22;15181;49.112;11.930;2022-10-14T00:15:45;11.80;99.90
27801;DHT22;15181;49.112;11.930;2022-10-14T00:18:13;11.80;99.90
27801;DHT22;15181;49.112;11.930;2022-10-14T00:20:40;11.90;99.90
27801;DHT22;15181;49.112;11.930;2022-10-14T00:23:07;11.90;99.90
27801;DHT22;15181;49.112;11.930;2022-10-14T00:25:36;11.80;99.90
27801;DHT22;15181;49.112;11.930;2022-10-14T00:28:04;11.90;99.90
27801;DHT22;15181;49.112;11.930;2022-10-14T00:30:31;11.90;99.90
27801;DHT22;15181;49.112;11.930;2022-10-14T00:32:59;11.80;99.90
27801;DHT22;15181;49.112;11.930;2022-10-14T00:35:27;11.80;99.90
27801;DHT22;15181;49.112;11.930;2022-10-14T00:37:56;11.70;99.90
27801;DHT22;15181;49.112;11.930;2022-10-14T00:40:24;11.60;99.90
27801;DHT22;15181;49.112;11.930;2022-10-14T00:42:51;11.60;99.90
27801;DHT22;15181;49.112;11.930;2022-10-14T00:45:20;11.70;99.90
27801;DHT22;15181;49.112;11.930;2022-10-14T00:47:49;11.60;99.90
27801;DHT22;15181;49.112;11.930;2022-10-14T00:50:19;11.60;99.90
27801;DHT22;15181;49.112;11.930;2022-10-14T00:52:48;11.50;99.90
27801;DHT22;15181;49.112;11.930;2022-10-14T00:55:16;11.40;99.90
27801;DHT22;15181;49.112;11.930;2022-10-14T00:57:44;11.30;99.90
27801;DHT22;15181;49.112;11.930;2022-10-14T01:00:14;11.40;99.90
27801;DHT22;15181;49.112;11.930;2022-10-14T01:02:42;11.40;99.90
27801;DHT22;15181;49.112;11.930;2022-10-14T01:05:10;11.40;99.90
27801;DHT22;15181;49.112;11.930;2022-10-14T01:07:45;11.50;99.90
27801;DHT22;15181;49.112;11.930;2022-10-14T01:10:22;11.50;99.90
27801;DHT22;15181;49.112;11.930;2022-10-14T01:12:59;11.60;99.90
27801;DHT22;15181;49.112;11.930;2022-10-14T01:15:34;11.60;99.90
27801;DHT22;15181;49.112;11.930;2022-10-14T01:18:10;11.70;99.90
27801;DHT22;15181;49.112;11.930;2022-10-14T01:21:00;11.70;99.90
27801;DHT22;15181;49.112;11.930;2022-10-14T01:24:06;11.70;99.90
27801;DHT22;15181;49.112;11.930;2022-10-14T01:26:58;11.70;99.90
27801;DHT22;15181;49.112;11.930;2022-10-14T01:30:07;11.70;99.90
27801;DHT22;15181;49.112;11.930;2022-10-14T01:32:36;11.70;99.90
27801;DHT22;15181;49.112;11.930;2022-10-14T01:35:11;11.60;99.90
27801;DHT22;15181;49.112;11.930;2022-10-14T01:37:47;11.60;99.90
27801;DHT22;15181;49.112;11.930;2022-10-14T01:40:21;11.60;99.90
27801;DHT22;15181;49.112;11.930;2022-10-14T01:42:50;11.70;99.90
27801;DHT22;15181;49.112;11.930;2022-10-14T01:45:21;11.70;99.90
27801;DHT22;15181;49.112;11.930;2022-10-14T01:47:50;11.70;99.90
27801;DHT22;15181;49.112;11.930;2022-10-14T01:50:20;11.70;99.90
27801;DHT22;15181;49.112;11.930;2022-10-14T01:52:51;11.80;99.90
27801;DHT22;15181;49.112;11.930;2022-10-14T01:55:23;11.80;99.90
27801;DHT22;15181;49.112;11.930;2022-10-14T01:57:52;11.80;99.90
27801;DHT22;15181;49.112;11.930;2022-10-14T02:00:22;11.80;99.90
27801;DHT22;15181;49.112;11.930;2022-10-14T02:02:49;11.80;99.90
27801;DHT22;15181;49.112;11.930;2022-10-14T02:05:20;11.80;99.90
27801;DHT22;15181;49.112;11.930;2022-10-14T02:07:50;11.80;99.90
27801;DHT22;15181;49.112;11.930;2022-10-14T02:10:32;11.80;99.90
27801;DHT22;15181;49.112;11.930;2022-10-14T02:13:13;11.90;99.90
27801;DHT22;15181;49.112;11.930;2022-10-14T02:15:53;11.90;99.90
27801;DHT22;15181;49.112;11.930;2022-10-14T02:18:28;11.80;99.90
27801;DHT22;15181;49.112;11.930;2022-10-14T02:21:02;11.80;99.90
27801;DHT22;15181;49.112;11.930;2022-10-14T02:23:37;11.80;99.90
27801;DHT22;15181;49.112;11.930;2022-10-14T02:26:05;11.80;99.90
27801;DHT22;15181;49.112;11.930;2022-10-14T02:28:33;11.70;99.90
27801;DHT22;15181;49.112;11.930;2022-10-14T02:31:06;11.60;99.90
27801;DHT22;15181;49.112;11.930;2022-10-14T02:33:38;11.60;99.90
27801;DHT22;15181;49.112;11.930;2022-10-14T02:36:07;11.50;99.90
27801;DHT22;15181;49.112;11.930;2022-10-14T02:38:34;11.50;99.90
27801;DHT22;15181;49.112;11.930;2022-10-14T02:41:04;11.50;99.90
27801;DHT22;15181;49.112;11.930;2022-10-14T02:43:31;11.60;99.90
27801;DHT22;15181;49.112;11.930;2022-10-14T02:46:01;11.60;99.90
27801;DHT22;15181;49.112;11.930;2022-10-14T02:48:30;11.60;99.90
27801;DHT22;15181;49.112;11.930;2022-10-14T02:50:57;11.60;99.90
27801;DHT22;15181;49.112;11.930;2022-10-14T02:53:24;11.50;99.90
27801;DHT22;15181;49.112;11.930;2022-10-14T02:55:51;11.50;99.90
27801;DHT22;15181;49.112;11.930;2022-10-14T02:58:17;11.40;99.90
27801;DHT22;15181;49.112;11.930;2022-10-14T03:00:44;11.50;99.90
27801;DHT22;15181;49.112;11.930;2022-10-14T03:03:13;11.40;99.90
27801;DHT22;15181;49.112;11.930;2022-10-14T03:05:42;11.50;99.90
27801;DHT22;15181;49.112;11.930;2022-10-14T03:08:09;11.50;99.90
27801;DHT22;15181;49.112;11.930;2022-10-14T03:10:36;11.50;99.90
27801;DHT22;15181;49.112;11.930;2022-10-14T03:13:03;11.50;99.90
27801;DHT22;15181;49.112;11.930;2022-10-14T03:15:29;11.50;99.90
27801;DHT22;15181;49.112;11.930;2022-10-14T03:17:58;11.60;99.90
27801;DHT22;15181;49.112;11.930;2022-10-14T03:20:25;11.60;99.90
27801;DHT22;15181;49.112;11.930;2022-10-14T03:22:54;11.60;99.90
27801;DHT22;15181;49.112;11.930;2022-10-14T03:25:20;11.70;99.90
27801;DHT22;15181;49.112;11.930;2022-10-14T03:27:48;11.70;99.90
27801;DHT22;15181;49.112;11.930;2022-10-14T03:30:15;11.70;99.90
27801;DHT22;15181;49.112;11.930;2022-10-14T03:32:42;11.70;99.90
27801;DHT22;15181;49.112;11.930;2022-10-14T03:35:09;11.50;99.90
27801;DHT22;15181;49.112;11.930;2022-10-14T03:37:36;11.50;99.90
27801;DHT22;15181;49.112;11.930;2022-10-14T03:40:05;11.50;99.90
27801;DHT22;15181;49.112;11.930;2022-10-14T03:42:32;11.50;99.90
27801;DHT22;15181;49.112;11.930;2022-10-14T03:44:59;11.50;99.90
27801;DHT22;15181;49.112;11.930;2022-10-14T03:47:26;11.50;99.90
27801;DHT22;15181;49.112;11.930;2022-10-14T03:49:53;11.60;99.90
27801;DHT22;15181;49.112;11.930;2022-10-14T03:52:20;11.60;99.90
27801;DHT22;15181;49.112;11.930;2022-10-14T03:54:47;11.60;99.90
27801;DHT22;15181;49.112;11.930;2022-10-14T03:57:15;11.60;99.90
27801;DHT22;15181;49.112;11.930;2022-10-14T03:59:42;11.60;99.90
27801;DHT22;15181;49.112;11.930;2022-10-14T04:02:09;11.50;99.90
27801;DHT22;15181;49.112;11.930;2022-10-14T04:04:36;11.50;99.90
27801;DHT22;15181;49.112;11.930;2022-10-14T04:07:03;11.50;99.90
27801;DHT22;15181;49.112;11.930;2022-10-14T04:09:30;11.40;99.90
27801;DHT22;15181;49.112;11.930;2022-10-14T04:11:57;11.40;99.90
27801;DHT22;15181;49.112;11.930;2022-10-14T04:14:26;11.40;99.90
27801;DHT22;15181;49.112;11.930;2022-10-14T04:16:53;11.40;99.90
27801;DHT22;15181;49.112;11.930;2022-10-14T04:19:20;11.40;99.90
27801;DHT22;15181;49.112;11.930;2022-10-14T04:21:46;11.40;99.90
27801;DHT22;15181;49.112;11.930;2022-10-14T04:24:14;11.40;99.90
27801;DHT22;15181;49.112;11.930;2022-10-14T04:26:41;11.40;99.90
27801;DHT22;15181;49.112;11.930;2022-10-14T04:29:08;11.50;99.90
27801;DHT22;15181;49.112;11.930;2022-10-14T04:31:36;11.50;99.90
27801;DHT22;15181;49.112;11.930;2022-10-14T04:34:03;11.50;99.90
27801;DHT22;15181;49.112;11.930;2022-10-14T04:36:30;11.60;99.90
27801;DHT22;15181;49.112;11.930;2022-10-14T04:38:57;11.50;99.90
27801;DHT22;15181;49.112;11.930;2022-10-14T04:41:24;11.60;99.90
27801;DHT22;15181;49.112;11.930;2022-10-14T04:43:50;11.60;99.90
27801;DHT22;15181;49.112;11.930;2022-10-14T04:46:17;11.60;99.90
27801;DHT22;15181;49.112;11.930;2022-10-14T04:48:47;11.60;99.90
27801;DHT22;15181;49.112;11.930;2022-10-14T04:51:15;11.60;99.90
27801;DHT22;15181;49.112;11.930;2022-10-14T04:53:41;11.60;99.90
27801;DHT22;15181;49.112;11.930;2022-10-14T04:56:08;11.60;99.90
27801;DHT22;15181;49.112;11.930;2022-10-14T04:58:35;11.60;99.90
27801;DHT22;15181;49.112;11.930;2022-10-14T05:01:02;11.60;99.90
27801;DHT22;15181;49.112;11.930;2022-10-14T05:03:29;11.60;99.90
27801;DHT22;15181;49.112;11.930;2022-10-14T05:05:57;11.70;99.90
27801;DHT22;15181;49.112;11.930;2022-10-14T05:08:25;11.60;99.90
27801;DHT22;15181;49.112;11.930;2022-10-14T05:10:52;11.60;99.90
27801;DHT22;15181;49.112;11.930;2022-10-14T05:13:19;11.60;99.90
27801;DHT22;15181;49.112;11.930;2022-10-14T05:15:46;11.60;99.90
27801;DHT22;15181;49.112;11.930;2022-10-14T05:18:13;11.60;99.90
27801;DHT22;15181;49.112;11.930;2022-10-14T05:20:40;11.60;99.90
27801;DHT22;15181;49.112;11.930;2022-10-14T05:23:08;11.60;99.90
27801;DHT22;15181;49.112;11.930;2022-10-14T05:25:35;11.60;99.90
27801;DHT22;15181;49.112;11.930;2022-10-14T05:28:02;11.60;99.90
27801;DHT22;15181;49.112;11.930;2022-10-14T05:30:29;11.60;99.90
27801;DHT22;15181;49.112;11.930;2022-10-14T05:32:56;11.60;99.90
27801;DHT22;15181;49.112;11.930;2022-10-14T05:35:23;11.70;99.90
27801;DHT22;15181;49.112;11.930;2022-10-14T05:37:53;11.70;99.90
27801;DHT22;15181;49.112;11.930;2022-10-14T05:40:23;11.70;99.90
27801;DHT22;15181;49.112;11.930;2022-10-14T05:42:50;11.70;99.90
27801;DHT22;15181;49.112;11.930;2022-10-14T05:45:17;11.80;99.90
27801;DHT22;15181;49.112;11.930;2022-10-14T05:47:44;11.80;99.90
27801;DHT22;15181;49.112;11.930;2022-10-14T05:50:12;11.80;99.90
27801;DHT22;15181;49.112;11.930;2022-10-14T05:52:39;11.80;99.90
27801;DHT22;15181;49.112;11.930;2022-10-14T05:55:07;11.80;99.90
27801;DHT22;15181;49.112;11.930;2022-10-14T05:57:35;11.80;99.90
27801;DHT22;15181;49.112;11.930;2022-10-14T06:00:04;11.90;99.90
27801;DHT22;15181;49.112;11.930;2022-10-14T06:02:31;11.80;99.90
27801;DHT22;15181;49.112;11.930;2022-10-14T06:04:58;11.80;99.90
27801;DHT22;15181;49.112;11.930;2022-10-14T06:07:24;11.90;99.90
27801;DHT22;15181;49.112;11.930;2022-10-14T06:09:51;11.90;99.90
27801;DHT22;15181;49.112;11.930;2022-10-14T06:12:18;11.90;99.90
27801;DHT22;15181;49.112;11.930;2022-10-14T06:14:46;11.90;99.90
27801;DHT22;15181;49.112;11.930;2022-10-14T06:17:13;11.90;99.90
27801;DHT22;15181;49.112;11.930;2022-10-14T06:19:40;11.90;99.90
27801;DHT22;15181;49.112;11.930;2022-10-14T06:22:07;11.90;99.90
27801;DHT22;15181;49.112;11.930;2022-10-14T06:24:34;11.90;99.90
27801;DHT22;15181;49.112;11.930;2022-10-14T06:27:01;11.90;99.90
27801;DHT22;15181;49.112;11.930;2022-10-14T06:29:28;11.90;99.90
27801;DHT22;15181;49.112;11.930;2022-10-14T06:32:03;12.00;99.90
27801;DHT22;15181;49.112;11.930;2022-10-14T06:34:31;12.00;99.90
27801;DHT22;15181;49.112;11.930;2022-10-14T06:36:58;12.00;99.90
27801;DHT22;15181;49.112;11.930;2022-10-14T06:39:25;12.10;99.90
27801;DHT22;15181;49.112;11.930;2022-10-14T06:41:52;12.10;99.90
27801;DHT22;15181;49.112;11.930;2022-10-14T06:44:18;12.10;99.90
27801;DHT22;15181;49.112;11.930;2022-10-14T06:46:45;12.10;99.90
27801;DHT22;15181;49.112;11.930;2022-10-14T06:49:14;12.10;99.90
27801;DHT22;15181;49.112;11.930;2022-10-14T06:51:41;12.10;99.90
27801;DHT22;15181;49.112;11.930;2022-10-14T06:54:07;12.20;99.90
27801;DHT22;15181;49.112;11.930;2022-10-14T06:56:34;12.20;99.90
27801;DHT22;15181;49.112;11.930;2022-10-14T06:59:01;12.20;99.90
27801;DHT22;15181;49.112;11.930;2022-10-14T07:01:30;12.30;99.90
27801;DHT22;15181;49.112;11.930;2022-10-14T07:03:57;12.30;99.90
27801;DHT22;15181;49.112;11.930;2022-10-14T07:06:25;12.40;99.90
27801;DHT22;15181;49.112;11.930;2022-10-14T07:08:52;12.40;99.90
27801;DHT22;15181;49.112;11.930;2022-10-14T07:11:19;12.40;99.90
27801;DHT22;15181;49.112;11.930;2022-10-14T07:13:46;12.40;99.90
27801;DHT22;15181;49.112;11.930;2022-10-14T07:16:12;12.40;99.90
27801;DHT22;15181;49.112;11.930;2022-10-14T07:18:39;12.50;99.90
27801;DHT22;15181;49.112;11.930;2022-10-14T07:21:07;12.50;99.90
27801;DHT22;15181;49.112;11.930;2022-10-14T07:23:35;12.50;99.90
27801;DHT22;15181;49.112;11.930;2022-10-14T07:26:02;12.50;99.90
27801;DHT22;15181;49.112;11.930;2022-10-14T07:28:29;12.50;99.90
27801;DHT22;15181;49.112;11.930;2022-10-14T07:31:00;12.50;99.90
27801;DHT22;15181;49.112;11.930;2022-10-14T07:33:27;12.60;99.90
27801;DHT22;15181;49.112;11.930;2022-10-14T07:35:54;12.60;99.90
27801;DHT22;15181;49.112;11.930;2022-10-14T07:38:21;12.60;99.90
27801;DHT22;15181;49.112;11.930;2022-10-14T07:40:57;12.70;99.90
27801;DHT22;15181;49.112;11.930;2022-10-14T07:43:24;12.70;99.90
27801;DHT22;15181;49.112;11.930;2022-10-14T07:45:51;12.70;99.90
27801;DHT22;15181;49.112;11.930;2022-10-14T07:48:25;12.80;99.90
27801;DHT22;15181;49.112;11.930;2022-10-14T07:50:52;12.80;99.90
27801;DHT22;15181;49.112;11.930;2022-10-14T07:53:20;12.80;99.90
27801;DHT22;15181;49.112;11.930;2022-10-14T07:55:47;12.90;99.90
27801;DHT22;15181;49.112;11.930;2022-10-14T07:58:20;12.90;99.90
27801;DHT22;15181;49.112;11.930;2022-10-14T08:00:47;13.00;99.90
27801;DHT22;15181;49.112;11.930;2022-10-14T08:03:15;13.00;99.90
27801;DHT22;15181;49.112;11.930;2022-10-14T08:05:42;13.00;99.90
27801;DHT22;15181;49.112;11.930;2022-10-14T08:08:10;13.10;99.90
27801;DHT22;15181;49.112;11.930;2022-10-14T08:10:37;13.10;99.90
27801;DHT22;15181;49.112;11.930;2022-10-14T08:13:04;13.10;99.90
27801;DHT22;15181;49.112;11.930;2022-10-14T08:15:37;13.20;99.90
27801;DHT22;15181;49.112;11.930;2022-10-14T08:18:05;13.10;99.90
27801;DHT22;15181;49.112;11.930;2022-10-14T08:20:33;13.10;99.90
27801;DHT22;15181;49.112;11.930;2022-10-14T08:23:00;13.20;99.90
27801;DHT22;15181;49.112;11.930;2022-10-14T08:25:27;13.30;99.90
27801;DHT22;15181;49.112;11.930;2022-10-14T08:27:54;13.30;99.90
27801;DHT22;15181;49.112;11.930;2022-10-14T08:30:22;13.40;99.90
27801;DHT22;15181;49.112;11.930;2022-10-14T08:32:50;13.40;99.90
27801;DHT22;15181;49.112;11.930;2022-10-14T08:35:17;13.50;99.90
27801;DHT22;15181;49.112;11.930;2022-10-14T08:37:52;13.60;99.90
27801;DHT22;15181;49.112;11.930;2022-10-14T08:40:20;13.70;99.90
27801;DHT22;15181;49.112;11.930;2022-10-14T08:42:51;13.70;99.90
27801;DHT22;15181;49.112;11.930;2022-10-14T08:45:23;13.80;99.90
27801;DHT22;15181;49.112;11.930;2022-10-14T08:47:54;13.80;99.90
27801;DHT22;15181;49.112;11.930;2022-10-14T08:50:26;13.80;99.90
27801;DHT22;15181;49.112;11.930;2022-10-14T08:53:01;13.90;99.90
27801;DHT22;15181;49.112;11.930;2022-10-14T08:55:32;13.80;99.90
27801;DHT22;15181;49.112;11.930;2022-10-14T08:58:05;13.90;99.90
27801;DHT22;15181;49.112;11.930;2022-10-14T09:00:33;13.90;99.90
27801;DHT22;15181;49.112;11.930;2022-10-14T09:03:10;14.00;99.90
27801;DHT22;15181;49.112;11.930;2022-10-14T09:05:39;14.00;99.90
27801;DHT22;15181;49.112;11.930;2022-10-14T09:08:07;14.10;99.90
27801;DHT22;15181;49.112;11.930;2022-10-14T09:10:39;14.10;99.90
27801;DHT22;15181;49.112;11.930;2022-10-14T09:13:10;14.10;99.90
27801;DHT22;15181;49.112;11.930;2022-10-14T09:15:40;14.20;99.90
27801;DHT22;15181;49.112;11.930;2022-10-14T09:18:19;14.20;99.90
27801;DHT22;15181;49.112;11.930;2022-10-14T09:20:48;14.30;99.90
27801;DHT22;15181;49.112;11.930;2022-10-14T09:23:17;14.30;99.90
27801;DHT22;15181;49.112;11.930;2022-10-14T09:25:53;14.40;99.90
27801;DHT22;15181;49.112;11.930;2022-10-14T09:28:25;14.50;99.90
27801;DHT22;15181;49.112;11.930;2022-10-14T09:30:53;14.50;99.90
27801;DHT22;15181;49.112;11.930;2022-10-14T09:33:22;14.60;99.90
27801;DHT22;15181;49.112;11.930;2022-10-14T09:35:51;14.70;99.90
27801;DHT22;15181;49.112;11.930;2022-10-14T09:38:18;14.70;99.90
27801;DHT22;15181;49.112;11.930;2022-10-14T09:40:48;14.90;99.90
27801;DHT22;15181;49.112;11.930;2022-10-14T09:43:17;14.90;99.90
27801;DHT22;15181;49.112;11.930;2022-10-14T09:45:52;15.00;99.90
27801;DHT22;15181;49.112;11.930;2022-10-14T09:48:31;15.00;99.90
27801;DHT22;15181;49.112;11.930;2022-10-14T09:51:04;15.10;99.90
27801;DHT22;15181;49.112;11.930;2022-10-14T09:53:36;15.10;99.90
27801;DHT22;15181;49.112;11.930;2022-10-14T09:56:07;15.20;99.90
27801;DHT22;15181;49.112;11.930;2022-10-14T09:58:37;15.30;99.90
27801;DHT22;15181;49.112;11.930;2022-10-14T10:01:05;15.30;99.90
27801;DHT22;15181;49.112;11.930;2022-10-14T10:03:38;15.30;99.90
27801;DHT22;15181;49.112;11.930;2022-10-14T10:06:07;15.40;99.90
27801;DHT22;15181;49.112;11.930;2022-10-14T10:08:36;15.40;99.90
27801;DHT22;15181;49.112;11.930;2022-10-14T10:11:05;15.50;99.90
27801;DHT22;15181;49.112;11.930;2022-10-14T10:13:39;15.50;99.90
27801;DHT22;15181;49.112;11.930;2022-10-14T10:16:19;15.50;99.90
27801;DHT22;15181;49.112;11.930;2022-10-14T10:18:48;15.50;99.90
27801;DHT22;15181;49.112;11.930;2022-10-14T10:21:17;15.60;99.90
27801;DHT22;15181;49.112;11.930;2022-10-14T10:23:54;15.60;99.90
27801;DHT22;15181;49.112;11.930;2022-10-14T10:26:23;15.60;99.90
27801;DHT22;15181;49.112;11.930;2022-10-14T10:28:53;15.70;99.90
27801;DHT22;15181;49.112;11.930;2022-10-14T10:31:50;15.70;99.90
27801;DHT22;15181;49.112;11.930;2022-10-14T10:34:48;15.80;99.90
27801;DHT22;15181;49.112;11.930;2022-10-14T10:37:27;15.80;99.90
27801;DHT22;15181;49.112;11.930;2022-10-14T10:40:13;15.80;99.90
27801;DHT22;15181;49.112;11.930;2022-10-14T10:42:52;15.90;99.90
27801;DHT22;15181;49.112;11.930;2022-10-14T10:45:32;15.90;99.90
27801;DHT22;15181;49.112;11.930;2022-10-14T10:48:05;15.90;99.90
27801;DHT22;15181;49.112;11.930;2022-10-14T10:50:42;16.00;99.90
27801;DHT22;15181;49.112;11.930;2022-10-14T10:56:21;16.00;99.90
27801;DHT22;15181;49.112;11.930;2022-10-14T10:59:20;15.90;99.90
27801;DHT22;15181;49.112;11.930;2022-10-14T11:01:55;15.90;99.90
27801;DHT22;15181;49.112;11.930;2022-10-14T11:04:29;15.90;99.90
27801;DHT22;15181;49.112;11.930;2022-10-14T11:07:07;15.90;99.90
27801;DHT22;15181;49.112;11.930;2022-10-14T11:09:57;16.00;99.90
27801;DHT22;15181;49.112;11.930;2022-10-14T11:12:51;16.10;99.90
27801;DHT22;15181;49.112;11.930;2022-10-14T11:15:28;16.10;99.90
27801;DHT22;15181;49.112;11.930;2022-10-14T11:18:00;16.20;99.90
27801;DHT22;15181;49.112;11.930;2022-10-14T11:20:37;16.30;99.90
27801;DHT22;15181;49.112;11.930;2022-10-14T11:23:20;16.30;99.90
27801;DHT22;15181;49.112;11.930;2022-10-14T11:25:54;16.40;99.90
27801;DHT22;15181;49.112;11.930;2022-10-14T11:28:28;16.40;99.90
27801;DHT22;15181;49.112;11.930;2022-10-14T11:31:05;16.50;99.90
27801;DHT22;15181;49.112;11.930;2022-10-14T11:33:46;16.50;99.90
27801;DHT22;15181;49.112;11.930;2022-10-14T11:36:29;16.60;99.90
27801;DHT22;15181;49.112;11.930;2022-10-14T11:39:17;16.50;99.90
27801;DHT22;15181;49.112;11.930;2022-10-14T11:41:58;16.50;99.90
27801;DHT22;15181;49.112;11.930;2022-10-14T11:44:33;16.50;99.90
27801;DHT22;15181;49.112;11.930;2022-10-14T11:47:07;16.50;99.90
27801;DHT22;15181;49.112;11.930;2022-10-14T11:49:41;16.50;99.90
27801;DHT22;15181;49.112;11.930;2022-10-14T11:52:15;16.50;99.90
27801;DHT22;15181;49.112;11.930;2022-10-14T11:54:47;16.50;99.90
27801;DHT22;15181;49.112;11.930;2022-10-14T11:57:21;16.60;99.90
27801;DHT22;15181;49.112;11.930;2022-10-14T11:59:52;16.60;99.90
27801;DHT22;15181;49.112;11.930;2022-10-14T12:02:41;16.70;99.90
27801;DHT22;15181;49.112;11.930;2022-10-14T12:05:16;16.70;99.90
27801;DHT22;15181;49.112;11.930;2022-10-14T12:07:46;16.80;99.90
27801;DHT22;15181;49.112;11.930;2022-10-14T12:10:22;16.80;99.90
27801;DHT22;15181;49.112;11.930;2022-10-14T12:12:53;16.90;99.90
27801;DHT22;15181;49.112;11.930;2022-10-14T12:15:23;16.90;99.90
27801;DHT22;15181;49.112;11.930;2022-10-14T12:17:53;17.00;99.90
27801;DHT22;15181;49.112;11.930;2022-10-14T12:20:29;17.00;99.90
27801;DHT22;15181;49.112;11.930;2022-10-14T12:22:59;17.00;99.90
27801;DHT22;15181;49.112;11.930;2022-10-14T12:25:34;17.00;99.90
27801;DHT22;15181;49.112;11.930;2022-10-14T12:28:04;17.00;99.90
27801;DHT22;15181;49.112;11.930;2022-10-14T12:30:36;17.00;99.90
27801;DHT22;15181;49.112;11.930;2022-10-14T12:33:05;17.00;99.90
27801;DHT22;15181;49.112;11.930;2022-10-14T12:35:51;17.00;99.90
27801;DHT22;15181;49.112;11.930;2022-10-14T12:38:19;17.10;99.90
27801;DHT22;15181;49.112;11.930;2022-10-14T12:40:49;17.10;99.90
27801;DHT22;15181;49.112;11.930;2022-10-14T12:43:23;17.10;99.90
27801;DHT22;15181;49.112;11.930;2022-10-14T12:46:01;17.10;99.90
27801;DHT22;15181;49.112;11.930;2022-10-14T12:48:31;17.10;99.90
27801;DHT22;15181;49.112;11.930;2022-10-14T12:51:08;17.10;99.90
27801;DHT22;15181;49.112;11.930;2022-10-14T12:53:36;17.00;99.90
27801;DHT22;15181;49.112;11.930;2022-10-14T12:56:05;17.00;99.90
27801;DHT22;15181;49.112;11.930;2022-10-14T12:58:36;17.00;99.90
27801;DHT22;15181;49.112;11.930;2022-10-14T13:01:06;17.00;99.90
27801;DHT22;15181;49.112;11.930;2022-10-14T13:03:42;17.10;99.90
27801;DHT22;15181;49.112;11.930;2022-10-14T13:06:32;17.20;99.90
27801;DHT22;15181;49.112;11.930;2022-10-14T13:09:33;17.20;99.90
27801;DHT22;15181;49.112;11.930;2022-10-14T13:15:31;17.20;99.90
27801;DHT22;15181;49.112;11.930;2022-10-14T13:24:16;17.20;99.90
27801;DHT22;15181;49.112;11.930;2022-10-14T13:26:55;17.20;99.90
27801;DHT22;15181;49.112;11.930;2022-10-14T13:29:27;17.20;99.90
27801;DHT22;15181;49.112;11.930;2022-10-14T13:32:03;17.20;99.90
27801;DHT22;15181;49.112;11.930;2022-10-14T13:34:46;17.20;99.90
27801;DHT22;15181;49.112;11.930;2022-10-14T13:37:30;17.20;99.90
27801;DHT22;15181;49.112;11.930;2022-10-14T13:40:07;17.20;99.90
27801;DHT22;15181;49.112;11.930;2022-10-14T13:42:41;17.20;99.90
27801;DHT22;15181;49.112;11.930;2022-10-14T13:45:12;17.20;99.90
27801;DHT22;15181;49.112;11.930;2022-10-14T13:47:41;17.20;99.90
27801;DHT22;15181;49.112;11.930;2022-10-14T13:50:16;17.20;99.90
27801;DHT22;15181;49.112;11.930;2022-10-14T13:52:50;17.20;99.90
27801;DHT22;15181;49.112;11.930;2022-10-14T13:55:20;17.20;99.90
27801;DHT22;15181;49.112;11.930;2022-10-14T13:58:10;17.20;99.90
27801;DHT22;15181;49.112;11.930;2022-10-14T14:00:39;17.20;99.90
27801;DHT22;15181;49.112;11.930;2022-10-14T14:03:20;17.20;99.90
27801;DHT22;15181;49.112;11.930;2022-10-14T14:05:48;17.20;99.90
27801;DHT22;15181;49.112;11.930;2022-10-14T14:08:20;17.10;99.90
27801;DHT22;15181;49.112;11.930;2022-10-14T14:10:53;17.20;99.90
27801;DHT22;15181;49.112;11.930;2022-10-14T14:13:20;17.20;99.90
27801;DHT22;15181;49.112;11.930;2022-10-14T14:15:48;17.20;99.90
27801;DHT22;15181;49.112;11.930;2022-10-14T14:18:26;17.20;99.90
27801;DHT22;15181;49.112;11.930;2022-10-14T14:20:57;17.20;99.90
27801;DHT22;15181;49.112;11.930;2022-10-14T14:23:25;17.20;99.90
27801;DHT22;15181;49.112;11.930;2022-10-14T14:25:52;17.20;99.90
27801;DHT22;15181;49.112;11.930;2022-10-14T14:28:20;17.10;99.90
27801;DHT22;15181;49.112;11.930;2022-10-14T14:30:49;17.10;99.90
27801;DHT22;15181;49.112;11.930;2022-10-14T14:33:19;17.10;99.90
27801;DHT22;15181;49.112;11.930;2022-10-14T14:35:54;17.10;99.90
27801;DHT22;15181;49.112;11.930;2022-10-14T14:38:26;17.10;99.90
27801;DHT22;15181;49.112;11.930;2022-10-14T14:41:00;17.10;99.90
27801;DHT22;15181;49.112;11.930;2022-10-14T14:43:28;17.00;99.90
27801;DHT22;15181;49.112;11.930;2022-10-14T14:45:56;17.00;99.90
27801;DHT22;15181;49.112;11.930;2022-10-14T14:48:24;17.00;99.90
27801;DHT22;15181;49.112;11.930;2022-10-14T14:50:52;16.90;99.90
27801;DHT22;15181;49.112;11.930;2022-10-14T14:53:20;16.90;99.90
27801;DHT22;15181;49.112;11.930;2022-10-14T14:55:59;16.90;99.90
27801;DHT22;15181;49.112;11.930;2022-10-14T14:58:29;16.90;99.90
27801;DHT22;15181;49.112;11.930;2022-10-14T15:00:58;16.80;99.90
27801;DHT22;15181;49.112;11.930;2022-10-14T15:03:27;16.80;99.90
27801;DHT22;15181;49.112;11.930;2022-10-14T15:05:57;16.80;99.90
27801;DHT22;15181;49.112;11.930;2022-10-14T15:08:26;16.80;99.90
27801;DHT22;15181;49.112;11.930;2022-10-14T15:10:55;16.70;99.90
27801;DHT22;15181;49.112;11.930;2022-10-14T15:13:31;16.70;99.90
27801;DHT22;15181;49.112;11.930;2022-10-14T15:16:07;16.70;99.90
27801;DHT22;15181;49.112;11.930;2022-10-14T15:18:34;16.70;99.90
27801;DHT22;15181;49.112;11.930;2022-10-14T15:21:13;16.70;99.90
27801;DHT22;15181;49.112;11.930;2022-10-14T15:26:33;16.70;99.90
27801;DHT22;15181;49.112;11.930;2022-10-14T15:29:09;16.60;99.90
27801;DHT22;15181;49.112;11.930;2022-10-14T15:31:38;16.60;99.90
27801;DHT22;15181;49.112;11.930;2022-10-14T15:34:15;16.60;99.90
27801;DHT22;15181;49.112;11.930;2022-10-14T15:36:43;16.50;99.90
27801;DHT22;15181;49.112;11.930;2022-10-14T15:39:12;16.50;99.90
27801;DHT22;15181;49.112;11.930;2022-10-14T15:41:39;16.40;99.90
27801;DHT22;15181;49.112;11.930;2022-10-14T15:44:06;16.40;99.90
27801;DHT22;15181;49.112;11.930;2022-10-14T15:46:35;16.40;99.90
27801;DHT22;15181;49.112;11.930;2022-10-14T15:49:22;16.30;99.90
27801;DHT22;15181;49.112;11.930;2022-10-14T15:51:52;16.20;99.90
27801;DHT22;15181;49.112;11.930;2022-10-14T15:54:19;16.20;99.90